VTK605 UMBB-UMOO
Flight info
| Callsign | VTK605 |
|---|---|
| Flight time | 1h 19m |
| Altitude | 19000 |
| Route | MAPAT L999 MNS M863 SODKO |
| Aircraft | C414/L-SBDFGRY/S |
Departure
| Time | 2026-04-25 08:29 |
|---|---|
| Airport | Brest International Airport (UMBB) |
Arrival
| Time | 2026-04-25 09:48 |
|---|---|
| Airport | Mogilev Airport (UMOO) |
| Time | Latitude | Longitude | Altitude | Speed | Heading |
|---|---|---|---|---|---|
| 2026-04-25 08:10 | 52.11007 | 23.90042 | 465 ft | 0 kts | 26° |
| 2026-04-25 08:24 | 52.11056 | 23.89998 | 465 ft | 14 kts | 252° |
| 2026-04-25 08:25 | 52.10986 | 23.89902 | 465 ft | 13 kts | 256° |
| 2026-04-25 08:25 | 52.10965 | 23.89777 | 465 ft | 11 kts | 207° |
| 2026-04-25 08:25 | 52.10931 | 23.89758 | 465 ft | 0 kts | 200° |
| 2026-04-25 08:25 | 52.10899 | 23.89734 | 465 ft | 12 kts | 206° |
| 2026-04-25 08:26 | 52.10798 | 23.89739 | 465 ft | 21 kts | 126° |
| 2026-04-25 08:26 | 52.10723 | 23.89999 | 464 ft | 29 kts | 114° |
| 2026-04-25 08:26 | 52.10638 | 23.90309 | 466 ft | 31 kts | 114° |
| 2026-04-25 08:26 | 52.10546 | 23.90639 | 466 ft | 33 kts | 116° |
| 2026-04-25 08:27 | 52.10449 | 23.90996 | 462 ft | 35 kts | 114° |
| 2026-04-25 08:27 | 52.10359 | 23.91282 | 463 ft | 22 kts | 119° |
| 2026-04-25 08:27 | 52.10380 | 23.91271 | 463 ft | 10 kts | 272° |
| 2026-04-25 08:27 | 52.10410 | 23.91142 | 462 ft | 24 kts | 291° |
| 2026-04-25 08:28 | 52.10549 | 23.90631 | 466 ft | 72 kts | 294° |
| 2026-04-25 08:28 | 52.10803 | 23.89692 | 466 ft | 106 kts | 295° |
| 2026-04-25 08:28 | 52.11099 | 23.88559 | 630 ft | 110 kts | 288° |
| 2026-04-25 08:28 | 52.11426 | 23.87389 | 804 ft | 117 kts | 296° |
| 2026-04-25 08:29 | 52.11807 | 23.86104 | 996 ft | 134 kts | 291° |
| 2026-04-25 08:29 | 52.12260 | 23.84731 | 1210 ft | 143 kts | 309° |
| 2026-04-25 08:29 | 52.13201 | 23.84069 | 1426 ft | 161 kts | 354° |
| 2026-04-25 08:29 | 52.14268 | 23.84802 | 1623 ft | 180 kts | 40° |
| 2026-04-25 08:30 | 52.14794 | 23.86669 | 1821 ft | 188 kts | 86° |
| 2026-04-25 08:30 | 52.14479 | 23.88670 | 2086 ft | 183 kts | 119° |
| 2026-04-25 08:30 | 52.14084 | 23.90652 | 2343 ft | 182 kts | 102° |
| 2026-04-25 08:30 | 52.13916 | 23.92704 | 2566 ft | 186 kts | 98° |
| 2026-04-25 08:31 | 52.13745 | 23.94785 | 2839 ft | 187 kts | 99° |
| 2026-04-25 08:31 | 52.13560 | 23.96897 | 3040 ft | 190 kts | 99° |
| 2026-04-25 08:31 | 52.13373 | 23.99024 | 3257 ft | 191 kts | 99° |
| 2026-04-25 08:31 | 52.13185 | 24.01161 | 3494 ft | 192 kts | 99° |
| 2026-04-25 08:32 | 52.12997 | 24.03322 | 3747 ft | 195 kts | 99° |
| 2026-04-25 08:32 | 52.12831 | 24.05496 | 4068 ft | 193 kts | 91° |
| 2026-04-25 08:32 | 52.13093 | 24.07617 | 4318 ft | 191 kts | 64° |
| 2026-04-25 08:32 | 52.13611 | 24.09612 | 4557 ft | 193 kts | 64° |
| 2026-04-25 08:33 | 52.14117 | 24.11611 | 4801 ft | 193 kts | 64° |
| 2026-04-25 08:33 | 52.14642 | 24.13668 | 5051 ft | 195 kts | 64° |
| 2026-04-25 08:33 | 52.15165 | 24.15704 | 5315 ft | 195 kts | 64° |
| 2026-04-25 08:33 | 52.15688 | 24.17742 | 5545 ft | 195 kts | 64° |
| 2026-04-25 08:34 | 52.16212 | 24.19790 | 5805 ft | 196 kts | 64° |
| 2026-04-25 08:34 | 52.16731 | 24.21816 | 6045 ft | 196 kts | 64° |
| 2026-04-25 08:34 | 52.17258 | 24.23881 | 6255 ft | 198 kts | 64° |
| 2026-04-25 08:34 | 52.17786 | 24.25957 | 6497 ft | 198 kts | 64° |
| 2026-04-25 08:35 | 52.18315 | 24.28032 | 6735 ft | 198 kts | 64° |
| 2026-04-25 08:35 | 52.18843 | 24.30101 | 6978 ft | 197 kts | 63° |
| 2026-04-25 08:35 | 52.19371 | 24.32180 | 7193 ft | 199 kts | 63° |
| 2026-04-25 08:35 | 52.19900 | 24.34269 | 7426 ft | 199 kts | 63° |
| 2026-04-25 08:36 | 52.20434 | 24.36366 | 7643 ft | 201 kts | 62° |
| 2026-04-25 08:36 | 52.20968 | 24.38468 | 7866 ft | 201 kts | 62° |
| 2026-04-25 08:36 | 52.21503 | 24.40583 | 8102 ft | 202 kts | 62° |
| 2026-04-25 08:36 | 52.22039 | 24.42698 | 8339 ft | 202 kts | 62° |
| 2026-04-25 08:37 | 52.22574 | 24.44815 | 8576 ft | 202 kts | 62° |
| 2026-04-25 08:37 | 52.23108 | 24.46933 | 8819 ft | 202 kts | 62° |
| 2026-04-25 08:37 | 52.23643 | 24.49049 | 9053 ft | 202 kts | 62° |
| 2026-04-25 08:37 | 52.24177 | 24.51169 | 9288 ft | 202 kts | 62° |
| 2026-04-25 08:38 | 52.24712 | 24.53288 | 9510 ft | 202 kts | 61° |
| 2026-04-25 08:38 | 52.25248 | 24.55418 | 9740 ft | 203 kts | 62° |
| 2026-04-25 08:38 | 52.25783 | 24.57549 | 9950 ft | 203 kts | 61° |
| 2026-04-25 08:38 | 52.26321 | 24.59684 | 10150 ft | 204 kts | 61° |
| 2026-04-25 08:39 | 52.26858 | 24.61828 | 10349 ft | 204 kts | 61° |
| 2026-04-25 08:39 | 52.27398 | 24.63984 | 10539 ft | 205 kts | 61° |
| 2026-04-25 08:39 | 52.27939 | 24.66144 | 10749 ft | 205 kts | 61° |
| 2026-04-25 08:39 | 52.28480 | 24.68308 | 10949 ft | 206 kts | 61° |
| 2026-04-25 08:40 | 52.29023 | 24.70479 | 11141 ft | 207 kts | 60° |
| 2026-04-25 08:40 | 52.29567 | 24.72656 | 11335 ft | 208 kts | 60° |
| 2026-04-25 08:40 | 52.30112 | 24.74841 | 11513 ft | 208 kts | 60° |
| 2026-04-25 08:40 | 52.30662 | 24.77037 | 11708 ft | 209 kts | 61° |
| 2026-04-25 08:41 | 52.31207 | 24.79234 | 11900 ft | 209 kts | 60° |
| 2026-04-25 08:41 | 52.31756 | 24.81439 | 12075 ft | 210 kts | 60° |
| 2026-04-25 08:41 | 52.32305 | 24.83654 | 12273 ft | 210 kts | 60° |
| 2026-04-25 08:41 | 52.32856 | 24.85874 | 12460 ft | 211 kts | 60° |
| 2026-04-25 08:42 | 52.33412 | 24.88104 | 12660 ft | 212 kts | 60° |
| 2026-04-25 08:42 | 52.33965 | 24.90343 | 12846 ft | 213 kts | 60° |
| 2026-04-25 08:42 | 52.34520 | 24.92592 | 13048 ft | 214 kts | 60° |
| 2026-04-25 08:42 | 52.35072 | 24.94819 | 13243 ft | 214 kts | 60° |
| 2026-04-25 08:43 | 52.35643 | 24.97102 | 13427 ft | 213 kts | 58° |
| 2026-04-25 08:43 | 52.36148 | 24.98441 | 13538 ft | 206 kts | 41° |
| 2026-04-25 08:43 | 52.37559 | 25.00420 | 13755 ft | 198 kts | 27° |
| 2026-04-25 08:43 | 52.38649 | 25.01771 | 13916 ft | 199 kts | 28° |
| 2026-04-25 08:44 | 52.39754 | 25.03144 | 14070 ft | 200 kts | 27° |
| 2026-04-25 08:44 | 52.40866 | 25.04520 | 14235 ft | 200 kts | 27° |
| 2026-04-25 08:44 | 52.41617 | 25.05451 | 14340 ft | 201 kts | 27° |
| 2026-04-25 08:44 | 52.42730 | 25.06830 | 14486 ft | 201 kts | 27° |
| 2026-04-25 08:45 | 52.43850 | 25.08218 | 14655 ft | 202 kts | 27° |
| 2026-04-25 08:45 | 52.45336 | 25.10064 | 14879 ft | 203 kts | 27° |
| 2026-04-25 08:45 | 52.46098 | 25.11010 | 14982 ft | 203 kts | 27° |
| 2026-04-25 08:45 | 52.47210 | 25.12391 | 15137 ft | 203 kts | 27° |
| 2026-04-25 08:46 | 52.48341 | 25.13797 | 15297 ft | 204 kts | 27° |
| 2026-04-25 08:46 | 52.49474 | 25.15207 | 15456 ft | 205 kts | 27° |
| 2026-04-25 08:46 | 52.50607 | 25.16618 | 15614 ft | 205 kts | 27° |
| 2026-04-25 08:46 | 52.51747 | 25.18040 | 15760 ft | 206 kts | 27° |
| 2026-04-25 08:47 | 52.52893 | 25.19467 | 15911 ft | 206 kts | 27° |
| 2026-04-25 08:47 | 52.54040 | 25.20899 | 16082 ft | 207 kts | 27° |
| 2026-04-25 08:47 | 52.55190 | 25.22334 | 16221 ft | 209 kts | 27° |
| 2026-04-25 08:47 | 52.56349 | 25.23784 | 16374 ft | 209 kts | 27° |
| 2026-04-25 08:48 | 52.57504 | 25.25229 | 16526 ft | 209 kts | 26° |
| 2026-04-25 08:48 | 52.58666 | 25.26680 | 16674 ft | 210 kts | 27° |
| 2026-04-25 08:48 | 52.59833 | 25.28142 | 16837 ft | 211 kts | 26° |
| 2026-04-25 08:48 | 52.60999 | 25.29605 | 16990 ft | 211 kts | 26° |
| 2026-04-25 08:49 | 52.62171 | 25.31074 | 17137 ft | 212 kts | 26° |
| 2026-04-25 08:49 | 52.63344 | 25.32544 | 17290 ft | 212 kts | 26° |
| 2026-04-25 08:49 | 52.64520 | 25.34020 | 17440 ft | 213 kts | 26° |
| 2026-04-25 08:49 | 52.65699 | 25.35502 | 17586 ft | 213 kts | 26° |
| 2026-04-25 08:50 | 52.66882 | 25.36989 | 17734 ft | 214 kts | 26° |
| 2026-04-25 08:50 | 52.68065 | 25.38478 | 17868 ft | 215 kts | 26° |
| 2026-04-25 08:50 | 52.69256 | 25.39975 | 18013 ft | 215 kts | 26° |
| 2026-04-25 08:50 | 52.70446 | 25.41476 | 18148 ft | 216 kts | 26° |
| 2026-04-25 08:51 | 52.71639 | 25.42981 | 18270 ft | 216 kts | 26° |
| 2026-04-25 08:51 | 52.72835 | 25.44487 | 18393 ft | 217 kts | 26° |
| 2026-04-25 08:51 | 52.74032 | 25.46000 | 18517 ft | 217 kts | 26° |
| 2026-04-25 08:51 | 52.75232 | 25.47516 | 18662 ft | 218 kts | 26° |
| 2026-04-25 08:52 | 52.76438 | 25.49041 | 18775 ft | 219 kts | 26° |
| 2026-04-25 08:52 | 52.77652 | 25.50572 | 18782 ft | 225 kts | 26° |
| 2026-04-25 08:52 | 52.78909 | 25.52163 | 18785 ft | 229 kts | 27° |
| 2026-04-25 08:52 | 52.80183 | 25.53780 | 18790 ft | 233 kts | 27° |
| 2026-04-25 08:53 | 52.81474 | 25.55419 | 18789 ft | 235 kts | 27° |
| 2026-04-25 08:53 | 52.82772 | 25.57069 | 18792 ft | 237 kts | 27° |
| 2026-04-25 08:53 | 52.84085 | 25.58735 | 18789 ft | 238 kts | 27° |
| 2026-04-25 08:53 | 52.85400 | 25.60408 | 18791 ft | 239 kts | 27° |
| 2026-04-25 08:54 | 52.86723 | 25.62089 | 18789 ft | 240 kts | 27° |
| 2026-04-25 08:54 | 52.88043 | 25.63768 | 18787 ft | 239 kts | 27° |
| 2026-04-25 08:54 | 52.89355 | 25.65443 | 18787 ft | 237 kts | 27° |
| 2026-04-25 08:54 | 52.90660 | 25.67111 | 18785 ft | 237 kts | 27° |
| 2026-04-25 08:55 | 52.91962 | 25.68773 | 18782 ft | 236 kts | 27° |
| 2026-04-25 08:55 | 52.93160 | 25.70692 | 18781 ft | 247 kts | 44° |
| 2026-04-25 08:55 | 52.94147 | 25.73024 | 18784 ft | 247 kts | 45° |
| 2026-04-25 08:55 | 52.95149 | 25.75344 | 18798 ft | 248 kts | 45° |
| 2026-04-25 08:56 | 52.96158 | 25.77671 | 18781 ft | 248 kts | 45° |
| 2026-04-25 08:56 | 52.97161 | 25.80002 | 18777 ft | 248 kts | 46° |
| 2026-04-25 08:56 | 52.98162 | 25.82335 | 18782 ft | 248 kts | 46° |
| 2026-04-25 08:56 | 52.99163 | 25.84666 | 18782 ft | 248 kts | 46° |
| 2026-04-25 08:57 | 53.00150 | 25.86965 | 18783 ft | 248 kts | 46° |
| 2026-04-25 08:57 | 53.01163 | 25.89326 | 18782 ft | 248 kts | 46° |
| 2026-04-25 08:57 | 53.02163 | 25.91663 | 18777 ft | 248 kts | 46° |
| 2026-04-25 08:57 | 53.03150 | 25.93967 | 18775 ft | 248 kts | 46° |
| 2026-04-25 08:58 | 53.04161 | 25.96330 | 18777 ft | 248 kts | 46° |
| 2026-04-25 08:58 | 53.05162 | 25.98673 | 18774 ft | 248 kts | 46° |
| 2026-04-25 08:58 | 53.06162 | 26.01017 | 18777 ft | 248 kts | 46° |
| 2026-04-25 08:58 | 53.07162 | 26.03361 | 18777 ft | 248 kts | 46° |
| 2026-04-25 08:59 | 53.08161 | 26.05707 | 18774 ft | 249 kts | 46° |
| 2026-04-25 08:59 | 53.09160 | 26.08054 | 18772 ft | 249 kts | 46° |
| 2026-04-25 08:59 | 53.10159 | 26.10403 | 18770 ft | 249 kts | 46° |
| 2026-04-25 08:59 | 53.11144 | 26.12722 | 18772 ft | 249 kts | 46° |
| 2026-04-25 09:00 | 53.12154 | 26.15102 | 18771 ft | 248 kts | 44° |
| 2026-04-25 09:00 | 53.13139 | 26.17420 | 18768 ft | 248 kts | 46° |
| 2026-04-25 09:00 | 53.14132 | 26.19769 | 18772 ft | 249 kts | 46° |
| 2026-04-25 09:00 | 53.15131 | 26.22131 | 18769 ft | 249 kts | 46° |
| 2026-04-25 09:01 | 53.16127 | 26.24485 | 18767 ft | 249 kts | 46° |
| 2026-04-25 09:01 | 53.17124 | 26.26841 | 18766 ft | 248 kts | 46° |
| 2026-04-25 09:01 | 53.18120 | 26.29200 | 18764 ft | 249 kts | 46° |
| 2026-04-25 09:01 | 53.19113 | 26.31557 | 18763 ft | 249 kts | 46° |
| 2026-04-25 09:02 | 53.20108 | 26.33921 | 18767 ft | 249 kts | 46° |
| 2026-04-25 09:02 | 53.21103 | 26.36285 | 18767 ft | 249 kts | 46° |
| 2026-04-25 09:02 | 53.22096 | 26.38645 | 18767 ft | 249 kts | 46° |
| 2026-04-25 09:02 | 53.23091 | 26.41012 | 18767 ft | 249 kts | 46° |
| 2026-04-25 09:03 | 53.24083 | 26.43376 | 18766 ft | 248 kts | 46° |
| 2026-04-25 09:03 | 53.25074 | 26.45739 | 18766 ft | 248 kts | 46° |
| 2026-04-25 09:03 | 53.26063 | 26.48101 | 18765 ft | 248 kts | 46° |
| 2026-04-25 09:03 | 53.27056 | 26.50474 | 18766 ft | 248 kts | 46° |
| 2026-04-25 09:04 | 53.28046 | 26.52844 | 18760 ft | 249 kts | 46° |
| 2026-04-25 09:04 | 53.29029 | 26.55216 | 18765 ft | 248 kts | 46° |
| 2026-04-25 09:04 | 53.30012 | 26.57595 | 18765 ft | 249 kts | 47° |
| 2026-04-25 09:04 | 53.30996 | 26.59976 | 18762 ft | 249 kts | 47° |
| 2026-04-25 09:05 | 53.31978 | 26.62349 | 18756 ft | 248 kts | 47° |
| 2026-04-25 09:05 | 53.32960 | 26.64727 | 18756 ft | 248 kts | 47° |
| 2026-04-25 09:05 | 53.33937 | 26.67098 | 18756 ft | 247 kts | 47° |
| 2026-04-25 09:05 | 53.34914 | 26.69468 | 18755 ft | 247 kts | 47° |
| 2026-04-25 09:06 | 53.35890 | 26.71836 | 18760 ft | 247 kts | 47° |
| 2026-04-25 09:06 | 53.36866 | 26.74209 | 18752 ft | 247 kts | 47° |
| 2026-04-25 09:06 | 53.37841 | 26.76582 | 18752 ft | 247 kts | 47° |
| 2026-04-25 09:06 | 53.38816 | 26.78956 | 18752 ft | 247 kts | 47° |
| 2026-04-25 09:07 | 53.39790 | 26.81329 | 18754 ft | 247 kts | 47° |
| 2026-04-25 09:07 | 53.40763 | 26.83700 | 18755 ft | 247 kts | 47° |
| 2026-04-25 09:07 | 53.41724 | 26.86051 | 18754 ft | 248 kts | 47° |
| 2026-04-25 09:07 | 53.42711 | 26.88465 | 18754 ft | 247 kts | 47° |
| 2026-04-25 09:08 | 53.43683 | 26.90842 | 18751 ft | 247 kts | 47° |
| 2026-04-25 09:08 | 53.44644 | 26.93195 | 18746 ft | 247 kts | 47° |
| 2026-04-25 09:08 | 53.45614 | 26.95575 | 18746 ft | 247 kts | 47° |
| 2026-04-25 09:08 | 53.46600 | 26.97983 | 18747 ft | 247 kts | 47° |
| 2026-04-25 09:09 | 53.47576 | 27.00355 | 18748 ft | 248 kts | 47° |
| 2026-04-25 09:09 | 53.48555 | 27.02741 | 18749 ft | 248 kts | 47° |
| 2026-04-25 09:09 | 53.49520 | 27.05098 | 18749 ft | 248 kts | 47° |
| 2026-04-25 09:09 | 53.50491 | 27.07476 | 18750 ft | 247 kts | 47° |
| 2026-04-25 09:10 | 53.51466 | 27.09860 | 18744 ft | 247 kts | 47° |
| 2026-04-25 09:10 | 53.52442 | 27.12248 | 18735 ft | 247 kts | 47° |
| 2026-04-25 09:10 | 53.53414 | 27.14633 | 18739 ft | 247 kts | 47° |
| 2026-04-25 09:10 | 53.54386 | 27.17018 | 18744 ft | 247 kts | 47° |
| 2026-04-25 09:11 | 53.56327 | 27.21789 | 18745 ft | 247 kts | 47° |
| 2026-04-25 09:11 | 53.57298 | 27.24177 | 18745 ft | 247 kts | 47° |
| 2026-04-25 09:11 | 53.58269 | 27.26568 | 18742 ft | 247 kts | 47° |
| 2026-04-25 09:12 | 53.59240 | 27.28964 | 18739 ft | 247 kts | 47° |
| 2026-04-25 09:12 | 53.60211 | 27.31361 | 18739 ft | 247 kts | 47° |
| 2026-04-25 09:12 | 53.61179 | 27.33752 | 18739 ft | 247 kts | 47° |
| 2026-04-25 09:12 | 53.62151 | 27.36156 | 18739 ft | 247 kts | 47° |
| 2026-04-25 09:13 | 53.63117 | 27.38549 | 18739 ft | 247 kts | 47° |
| 2026-04-25 09:13 | 53.64083 | 27.40940 | 18735 ft | 247 kts | 47° |
| 2026-04-25 09:13 | 53.65051 | 27.43339 | 18736 ft | 248 kts | 49° |
| 2026-04-25 09:13 | 53.66010 | 27.45721 | 18732 ft | 248 kts | 49° |
| 2026-04-25 09:14 | 53.66980 | 27.48131 | 18734 ft | 248 kts | 49° |
| 2026-04-25 09:14 | 53.67948 | 27.50538 | 18734 ft | 248 kts | 49° |
| 2026-04-25 09:14 | 53.68917 | 27.52949 | 18734 ft | 248 kts | 49° |
| 2026-04-25 09:14 | 53.69885 | 27.55362 | 18732 ft | 248 kts | 49° |
| 2026-04-25 09:15 | 53.70852 | 27.57776 | 18729 ft | 248 kts | 49° |
| 2026-04-25 09:15 | 53.71818 | 27.60185 | 18722 ft | 248 kts | 49° |
| 2026-04-25 09:15 | 53.72780 | 27.62589 | 18721 ft | 247 kts | 49° |
| 2026-04-25 09:15 | 53.73743 | 27.64997 | 18720 ft | 247 kts | 49° |
| 2026-04-25 09:16 | 53.74702 | 27.67399 | 18719 ft | 247 kts | 49° |
| 2026-04-25 09:16 | 53.75662 | 27.69805 | 18719 ft | 247 kts | 49° |
| 2026-04-25 09:16 | 53.76620 | 27.72209 | 18718 ft | 246 kts | 49° |
| 2026-04-25 09:16 | 53.77578 | 27.74611 | 18718 ft | 247 kts | 49° |
| 2026-04-25 09:17 | 53.79494 | 27.79430 | 18717 ft | 247 kts | 49° |
| 2026-04-25 09:17 | 53.80451 | 27.81841 | 18717 ft | 247 kts | 49° |
| 2026-04-25 09:17 | 53.81408 | 27.84253 | 18717 ft | 247 kts | 49° |
| 2026-04-25 09:18 | 53.82368 | 27.86674 | 18717 ft | 249 kts | 50° |
| 2026-04-25 09:18 | 53.83331 | 27.89106 | 18716 ft | 248 kts | 50° |
| 2026-04-25 09:18 | 53.84291 | 27.91535 | 18716 ft | 248 kts | 50° |
| 2026-04-25 09:18 | 53.85253 | 27.93968 | 18716 ft | 248 kts | 50° |
| 2026-04-25 09:19 | 53.86210 | 27.96390 | 18716 ft | 248 kts | 50° |
| 2026-04-25 09:19 | 53.87167 | 27.98819 | 18715 ft | 247 kts | 50° |
| 2026-04-25 09:19 | 53.88123 | 28.01248 | 18715 ft | 247 kts | 51° |
| 2026-04-25 09:19 | 53.88858 | 28.03919 | 18716 ft | 253 kts | 65° |
| 2026-04-25 09:20 | 53.89449 | 28.06728 | 18716 ft | 253 kts | 65° |
| 2026-04-25 09:20 | 53.90060 | 28.09524 | 18718 ft | 253 kts | 64° |
| 2026-04-25 09:20 | 53.90671 | 28.12324 | 18720 ft | 254 kts | 65° |
| 2026-04-25 09:20 | 53.91279 | 28.15141 | 18717 ft | 254 kts | 65° |
| 2026-04-25 09:21 | 53.91884 | 28.17957 | 18716 ft | 255 kts | 65° |
| 2026-04-25 09:21 | 53.92493 | 28.20785 | 18714 ft | 255 kts | 65° |
| 2026-04-25 09:21 | 53.93093 | 28.23571 | 18714 ft | 254 kts | 65° |
| 2026-04-25 09:21 | 53.93700 | 28.26399 | 18714 ft | 254 kts | 65° |
| 2026-04-25 09:22 | 53.94306 | 28.29222 | 18711 ft | 254 kts | 65° |
| 2026-04-25 09:22 | 53.94909 | 28.32039 | 18711 ft | 254 kts | 65° |
| 2026-04-25 09:22 | 53.95512 | 28.34863 | 18711 ft | 254 kts | 65° |
| 2026-04-25 09:22 | 53.96114 | 28.37676 | 18711 ft | 254 kts | 65° |
| 2026-04-25 09:23 | 53.96717 | 28.40505 | 18711 ft | 255 kts | 65° |
| 2026-04-25 09:23 | 53.97323 | 28.43342 | 18711 ft | 255 kts | 65° |
| 2026-04-25 09:23 | 53.97924 | 28.46179 | 18704 ft | 255 kts | 65° |
| 2026-04-25 09:23 | 53.98526 | 28.49009 | 18703 ft | 255 kts | 65° |
| 2026-04-25 09:24 | 53.99120 | 28.51820 | 18705 ft | 251 kts | 66° |
| 2026-04-25 09:24 | 53.99712 | 28.54619 | 18705 ft | 254 kts | 65° |
| 2026-04-25 09:24 | 54.00115 | 28.56493 | 18706 ft | 254 kts | 65° |
| 2026-04-25 09:24 | 54.00711 | 28.59319 | 18703 ft | 254 kts | 66° |
| 2026-04-25 09:25 | 54.01306 | 28.62132 | 18699 ft | 253 kts | 65° |
| 2026-04-25 09:25 | 54.02090 | 28.65866 | 18693 ft | 253 kts | 66° |
| 2026-04-25 09:25 | 54.02491 | 28.67775 | 18689 ft | 254 kts | 66° |
| 2026-04-25 09:25 | 54.03277 | 28.71517 | 18692 ft | 254 kts | 66° |
| 2026-04-25 09:26 | 54.03678 | 28.73426 | 18695 ft | 254 kts | 66° |
| 2026-04-25 09:26 | 54.04272 | 28.76259 | 18693 ft | 254 kts | 66° |
| 2026-04-25 09:26 | 54.04864 | 28.79091 | 18693 ft | 254 kts | 66° |
| 2026-04-25 09:26 | 54.05449 | 28.81893 | 18702 ft | 254 kts | 66° |
| 2026-04-25 09:27 | 54.06039 | 28.84719 | 18700 ft | 254 kts | 66° |
| 2026-04-25 09:27 | 54.06630 | 28.87553 | 18690 ft | 254 kts | 66° |
| 2026-04-25 09:27 | 54.07220 | 28.90389 | 18690 ft | 254 kts | 66° |
| 2026-04-25 09:27 | 54.07813 | 28.93231 | 18691 ft | 254 kts | 66° |
| 2026-04-25 09:28 | 54.08408 | 28.96068 | 18687 ft | 254 kts | 66° |
| 2026-04-25 09:28 | 54.09000 | 28.98900 | 18687 ft | 254 kts | 66° |
| 2026-04-25 09:28 | 54.09593 | 29.01737 | 18694 ft | 255 kts | 66° |
| 2026-04-25 09:28 | 54.10187 | 29.04592 | 18697 ft | 255 kts | 66° |
| 2026-04-25 09:29 | 54.10781 | 29.07448 | 18694 ft | 256 kts | 66° |
| 2026-04-25 09:29 | 54.11373 | 29.10301 | 18692 ft | 255 kts | 66° |
| 2026-04-25 09:29 | 54.11965 | 29.13151 | 18696 ft | 255 kts | 66° |
| 2026-04-25 09:29 | 54.12555 | 29.15997 | 18695 ft | 255 kts | 66° |
| 2026-04-25 09:30 | 54.13145 | 29.18849 | 18694 ft | 255 kts | 66° |
| 2026-04-25 09:30 | 54.13736 | 29.21709 | 18694 ft | 256 kts | 66° |
| 2026-04-25 09:30 | 54.14325 | 29.24572 | 18695 ft | 256 kts | 66° |
| 2026-04-25 09:30 | 54.14913 | 29.27429 | 18696 ft | 256 kts | 66° |
| 2026-04-25 09:31 | 54.15500 | 29.30289 | 18694 ft | 255 kts | 66° |
| 2026-04-25 09:31 | 54.16085 | 29.33140 | 18691 ft | 254 kts | 66° |
| 2026-04-25 09:31 | 54.16669 | 29.35989 | 18694 ft | 254 kts | 66° |
| 2026-04-25 09:31 | 54.17252 | 29.38836 | 18683 ft | 254 kts | 66° |
| 2026-04-25 09:32 | 54.17726 | 29.41751 | 18687 ft | 257 kts | 80° |
| 2026-04-25 09:32 | 54.17674 | 29.44811 | 18697 ft | 260 kts | 100° |
| 2026-04-25 09:32 | 54.17086 | 29.47710 | 18699 ft | 259 kts | 120° |
| 2026-04-25 09:32 | 54.16170 | 29.50348 | 18700 ft | 258 kts | 123° |
| 2026-04-25 09:33 | 54.15253 | 29.52979 | 18697 ft | 258 kts | 123° |
| 2026-04-25 09:33 | 54.14337 | 29.55609 | 18695 ft | 259 kts | 123° |
| 2026-04-25 09:33 | 54.13414 | 29.58244 | 18697 ft | 259 kts | 123° |
| 2026-04-25 09:33 | 54.12487 | 29.60892 | 18697 ft | 259 kts | 123° |
| 2026-04-25 09:34 | 54.11564 | 29.63529 | 18703 ft | 259 kts | 123° |
| 2026-04-25 09:34 | 54.10653 | 29.66127 | 18699 ft | 248 kts | 123° |
| 2026-04-25 09:34 | 54.09765 | 29.68656 | 18323 ft | 253 kts | 123° |
| 2026-04-25 09:34 | 54.08848 | 29.71258 | 17857 ft | 258 kts | 123° |
| 2026-04-25 09:35 | 54.07921 | 29.73893 | 17348 ft | 261 kts | 123° |
| 2026-04-25 09:35 | 54.06990 | 29.76540 | 16873 ft | 260 kts | 123° |
| 2026-04-25 09:35 | 54.06064 | 29.79168 | 16407 ft | 258 kts | 123° |
| 2026-04-25 09:35 | 54.05141 | 29.81789 | 15942 ft | 258 kts | 122° |
| 2026-04-25 09:36 | 54.04217 | 29.84401 | 15480 ft | 256 kts | 123° |
| 2026-04-25 09:36 | 54.03298 | 29.86975 | 15027 ft | 253 kts | 122° |
| 2026-04-25 09:36 | 54.02408 | 29.89502 | 14587 ft | 252 kts | 122° |
| 2026-04-25 09:36 | 54.01495 | 29.92086 | 14142 ft | 252 kts | 123° |
| 2026-04-25 09:37 | 54.00605 | 29.94590 | 13720 ft | 249 kts | 122° |
| 2026-04-25 09:37 | 53.99719 | 29.97094 | 13266 ft | 245 kts | 122° |
| 2026-04-25 09:37 | 53.98844 | 29.99557 | 12773 ft | 242 kts | 122° |
| 2026-04-25 09:37 | 53.97979 | 30.01988 | 12315 ft | 239 kts | 123° |
| 2026-04-25 09:38 | 53.97120 | 30.04396 | 11823 ft | 238 kts | 123° |
| 2026-04-25 09:38 | 53.96265 | 30.06796 | 11335 ft | 237 kts | 123° |
| 2026-04-25 09:38 | 53.95407 | 30.09164 | 10857 ft | 234 kts | 126° |
| 2026-04-25 09:38 | 53.94309 | 30.11159 | 10382 ft | 230 kts | 140° |
| 2026-04-25 09:39 | 53.93160 | 30.13022 | 9911 ft | 228 kts | 138° |
| 2026-04-25 09:39 | 53.91989 | 30.14826 | 9425 ft | 226 kts | 143° |
| 2026-04-25 09:39 | 53.90790 | 30.16512 | 8923 ft | 223 kts | 143° |
| 2026-04-25 09:40 | 53.88416 | 30.19872 | 7870 ft | 222 kts | 140° |
| 2026-04-25 09:40 | 53.87615 | 30.22107 | 7342 ft | 226 kts | 105° |
| 2026-04-25 09:40 | 53.87511 | 30.24764 | 6834 ft | 226 kts | 89° |
| 2026-04-25 09:40 | 53.87566 | 30.27416 | 6339 ft | 225 kts | 88° |
| 2026-04-25 09:41 | 53.87638 | 30.30059 | 5826 ft | 223 kts | 88° |
| 2026-04-25 09:41 | 53.87713 | 30.32685 | 5305 ft | 223 kts | 88° |
| 2026-04-25 09:41 | 53.87788 | 30.35297 | 4792 ft | 221 kts | 87° |
| 2026-04-25 09:41 | 53.87834 | 30.37887 | 4272 ft | 219 kts | 96° |
| 2026-04-25 09:42 | 53.87277 | 30.40206 | 3744 ft | 213 kts | 133° |
| 2026-04-25 09:42 | 53.86073 | 30.41480 | 3300 ft | 200 kts | 172° |
| 2026-04-25 09:42 | 53.84777 | 30.41288 | 3149 ft | 183 kts | 204° |
| 2026-04-25 09:42 | 53.83787 | 30.40116 | 3005 ft | 173 kts | 232° |
| 2026-04-25 09:43 | 53.83265 | 30.38311 | 2873 ft | 168 kts | 258° |
| 2026-04-25 09:43 | 53.83309 | 30.36364 | 2747 ft | 167 kts | 285° |
| 2026-04-25 09:43 | 53.83832 | 30.34617 | 2618 ft | 167 kts | 298° |
| 2026-04-25 09:43 | 53.84417 | 30.32922 | 2495 ft | 167 kts | 297° |
| 2026-04-25 09:44 | 53.84999 | 30.31212 | 2368 ft | 168 kts | 297° |
| 2026-04-25 09:44 | 53.85580 | 30.29495 | 2240 ft | 168 kts | 297° |
| 2026-04-25 09:44 | 53.86162 | 30.27790 | 2110 ft | 166 kts | 296° |
| 2026-04-25 09:44 | 53.86737 | 30.26105 | 1986 ft | 165 kts | 296° |
| 2026-04-25 09:45 | 53.87306 | 30.24419 | 1857 ft | 164 kts | 296° |
| 2026-04-25 09:45 | 53.87865 | 30.22763 | 1735 ft | 164 kts | 297° |
| 2026-04-25 09:45 | 53.88435 | 30.21081 | 1601 ft | 166 kts | 297° |
| 2026-04-25 09:45 | 53.89167 | 30.19604 | 1462 ft | 162 kts | 315° |
| 2026-04-25 09:46 | 53.89947 | 30.18402 | 1381 ft | 141 kts | 314° |
| 2026-04-25 09:46 | 53.90640 | 30.17292 | 1367 ft | 130 kts | 311° |
| 2026-04-25 09:46 | 53.91243 | 30.16315 | 1362 ft | 113 kts | 312° |
| 2026-04-25 09:46 | 53.91795 | 30.15423 | 1358 ft | 107 kts | 311° |
| 2026-04-25 09:47 | 53.92327 | 30.14577 | 1253 ft | 101 kts | 314° |
| 2026-04-25 09:47 | 53.92825 | 30.13786 | 1124 ft | 96 kts | 313° |
| 2026-04-25 09:47 | 53.93307 | 30.13011 | 1007 ft | 95 kts | 310° |
| 2026-04-25 09:47 | 53.93784 | 30.12232 | 880 ft | 95 kts | 312° |
| 2026-04-25 09:48 | 53.94261 | 30.11468 | 755 ft | 93 kts | 313° |
| 2026-04-25 09:48 | 53.94734 | 30.10725 | 640 ft | 91 kts | 313° |
| 2026-04-25 09:48 | 53.95170 | 30.10032 | 609 ft | 74 kts | 307° |
| 2026-04-25 09:48 | 53.95432 | 30.09606 | 609 ft | 35 kts | 321° |
| 2026-04-25 09:49 | 53.95545 | 30.09424 | 613 ft | 18 kts | 316° |
| 2026-04-25 09:49 | 53.95636 | 30.09402 | 609 ft | 16 kts | 54° |
| 2026-04-25 09:49 | 53.95698 | 30.09510 | 614 ft | 12 kts | 47° |
| 2026-04-25 09:49 | 53.95752 | 30.09608 | 614 ft | 10 kts | 46° |
| 2026-04-25 09:50 | 53.95778 | 30.09701 | 609 ft | 8 kts | 67° |
| 2026-04-25 09:50 | 53.95783 | 30.09782 | 609 ft | 5 kts | 147° |
| 2026-04-25 09:50 | 53.95754 | 30.09817 | 609 ft | 7 kts | 47° |
| 2026-04-25 09:50 | 53.95776 | 30.09791 | 609 ft | 0 kts | 316° |